createdAt,value
2022-11-29T00:01:35.702Z,15.06
2022-11-29T00:04:04.307Z,15.05
2022-11-29T00:06:33.918Z,15.04
2022-11-29T00:09:06.388Z,15.03
2022-11-29T00:11:37.334Z,15.02
2022-11-29T00:14:06.842Z,15.02
2022-11-29T00:16:35.205Z,15.02
2022-11-29T00:19:03.607Z,15.01
2022-11-29T00:21:31.785Z,15.01
2022-11-29T00:24:00.083Z,14.99
2022-11-29T00:26:28.357Z,14.98
2022-11-29T00:28:56.633Z,14.96
2022-11-29T00:31:30.457Z,14.94
2022-11-29T00:34:00.726Z,14.92
2022-11-29T00:36:29.865Z,14.91
2022-11-29T00:38:59.297Z,14.88
2022-11-29T00:41:27.650Z,14.86
2022-11-29T00:43:56.136Z,14.84
2022-11-29T00:46:24.892Z,14.82
2022-11-29T00:48:53.004Z,14.81
2022-11-29T00:51:22.104Z,14.79
2022-11-29T00:53:50.338Z,14.77
2022-11-29T00:56:18.562Z,14.74
2022-11-29T00:58:46.741Z,14.72
2022-11-29T01:01:15.164Z,14.70
2022-11-29T01:03:44.102Z,14.67
2022-11-29T01:06:15.470Z,14.64
2022-11-29T01:08:43.957Z,14.62
2022-11-29T01:11:15.687Z,14.61
2022-11-29T01:13:44.721Z,14.57
2022-11-29T01:16:14.553Z,14.55
2022-11-29T01:18:43.628Z,14.54
2022-11-29T01:21:18.154Z,14.53
2022-11-29T01:23:47.005Z,14.51
2022-11-29T01:26:19.329Z,14.49
2022-11-29T01:28:50.562Z,14.47
2022-11-29T01:31:22.243Z,14.46
2022-11-29T01:33:54.580Z,14.45
2022-11-29T01:36:23.662Z,14.44
2022-11-29T01:38:52.287Z,14.43
2022-11-29T01:41:26.743Z,14.41
2022-11-29T01:44:07.679Z,14.39
2022-11-29T01:46:39.337Z,14.38
2022-11-29T01:49:24.512Z,14.37
2022-11-29T01:51:58.202Z,14.35
2022-11-29T01:54:27.081Z,14.33
2022-11-29T01:56:55.180Z,14.31
2022-11-29T01:59:28.469Z,14.30
2022-11-29T02:02:25.245Z,14.28
2022-11-29T02:04:53.889Z,14.27
2022-11-29T02:07:22.201Z,14.26
2022-11-29T02:09:50.351Z,14.25
2022-11-29T02:12:50.831Z,14.24
2022-11-29T02:15:41.513Z,14.23
2022-11-29T02:18:21.092Z,14.22
2022-11-29T02:21:01.550Z,14.21
2022-11-29T02:23:39.041Z,14.20
2022-11-29T02:26:13.257Z,14.17
2022-11-29T02:29:03.541Z,14.16
2022-11-29T02:32:09.893Z,14.14
2022-11-29T02:34:58.048Z,14.12
2022-11-29T02:37:28.965Z,14.11
2022-11-29T02:40:01.132Z,14.09
2022-11-29T02:42:29.309Z,14.08
2022-11-29T02:45:09.053Z,14.08
2022-11-29T02:47:55.447Z,14.07
2022-11-29T02:50:50.126Z,14.05
2022-11-29T02:53:32.734Z,14.03
2022-11-29T02:56:23.019Z,14.01
2022-11-29T02:59:20.984Z,13.98
2022-11-29T03:02:05.150Z,13.95
2022-11-29T03:04:45.744Z,13.92
2022-11-29T03:07:20.465Z,13.89
2022-11-29T03:10:12.331Z,13.87
2022-11-29T03:12:47.721Z,13.83
2022-11-29T03:15:21.805Z,13.79
2022-11-29T03:18:02.649Z,13.76
2022-11-29T03:20:39.419Z,13.74
2022-11-29T03:23:19.481Z,13.70
2022-11-29T03:25:57.474Z,13.69
2022-11-29T03:28:28.211Z,13.67
2022-11-29T03:31:27.935Z,13.64
2022-11-29T03:33:56.496Z,13.62
2022-11-29T03:36:45.078Z,13.60
2022-11-29T03:39:28.672Z,13.59
2022-11-29T03:42:02.435Z,13.58
2022-11-29T03:44:47.039Z,13.56
2022-11-29T03:47:21.655Z,13.54
2022-11-29T03:49:53.724Z,13.53
2022-11-29T03:52:32.143Z,13.52
2022-11-29T03:55:09.419Z,13.51
2022-11-29T03:57:55.915Z,13.49
2022-11-29T04:00:24.825Z,13.47
2022-11-29T04:02:56.206Z,13.46
2022-11-29T04:05:40.614Z,13.45
2022-11-29T04:08:34.675Z,13.44
2022-11-29T04:11:40.760Z,13.42
2022-11-29T04:14:31.307Z,13.41
2022-11-29T04:17:38.573Z,13.41
2022-11-29T04:20:25.582Z,13.40
2022-11-29T04:23:21.698Z,13.39
2022-11-29T04:25:49.772Z,13.38
2022-11-29T04:28:45.073Z,13.38
2022-11-29T04:31:28.948Z,13.37
2022-11-29T04:34:15.608Z,13.36
2022-11-29T04:37:02.002Z,13.34
2022-11-29T04:39:45.529Z,13.33
2022-11-29T04:42:19.539Z,13.32
2022-11-29T04:45:12.380Z,13.31
2022-11-29T04:48:08.239Z,13.30
2022-11-29T04:51:05.781Z,13.30
2022-11-29T04:53:44.966Z,13.32
2022-11-29T04:56:54.797Z,13.34
2022-11-29T04:59:31.672Z,13.38
2022-11-29T05:02:10.800Z,13.42
2022-11-29T05:05:26.254Z,13.44
2022-11-29T05:08:09.986Z,13.47
2022-11-29T05:11:00.782Z,13.50
2022-11-29T05:14:06.725Z,13.52
2022-11-29T05:16:49.122Z,13.53
2022-11-29T05:19:24.382Z,13.52
2022-11-29T05:22:10.761Z,13.55
2022-11-29T05:24:55.921Z,13.58
2022-11-29T05:27:54.290Z,13.60
2022-11-29T05:30:24.895Z,13.62
2022-11-29T05:32:52.824Z,13.64
2022-11-29T05:35:51.058Z,13.65
2022-11-29T05:38:28.140Z,13.65
2022-11-29T05:41:11.635Z,13.63
2022-11-29T05:44:17.506Z,13.60
2022-11-29T05:46:59.544Z,13.58
2022-11-29T05:49:33.612Z,13.56
2022-11-29T05:52:30.340Z,13.55
2022-11-29T05:54:58.520Z,13.53
2022-11-29T05:57:43.897Z,13.50
2022-11-29T06:00:14.213Z,13.47
2022-11-29T06:03:03.308Z,13.44
2022-11-29T06:05:59.286Z,13.41
2022-11-29T06:08:46.086Z,13.37
2022-11-29T06:11:20.694Z,13.33
2022-11-29T06:14:00.773Z,13.29
2022-11-29T06:16:53.702Z,13.26
2022-11-29T06:19:47.261Z,13.22
2022-11-29T06:22:34.371Z,13.19
2022-11-29T06:25:36.524Z,13.16
2022-11-29T06:28:23.636Z,13.13
2022-11-29T06:30:55.291Z,13.09
2022-11-29T06:33:30.121Z,13.06
2022-11-29T06:36:23.371Z,13.02
2022-11-29T06:38:51.825Z,12.99
2022-11-29T06:41:23.017Z,12.96
2022-11-29T06:43:51.803Z,12.94
2022-11-29T06:47:05.308Z,12.93
2022-11-29T06:49:36.255Z,12.91
2022-11-29T06:52:15.789Z,12.90
2022-11-29T06:55:14.971Z,12.90
2022-11-29T06:57:43.253Z,12.89
2022-11-29T07:00:27.291Z,12.89
2022-11-29T07:03:21.462Z,12.87
2022-11-29T07:05:50.067Z,12.87
2022-11-29T07:08:21.622Z,12.87
2022-11-29T07:10:52.267Z,12.88
2022-11-29T07:13:21.340Z,12.89
2022-11-29T07:16:11.597Z,12.91
2022-11-29T07:19:01.803Z,12.94
2022-11-29T07:21:38.884Z,12.96
2022-11-29T07:24:34.999Z,12.98
2022-11-29T07:27:21.801Z,13.01
2022-11-29T07:30:19.399Z,13.05
2022-11-29T07:33:00.011Z,13.09
2022-11-29T07:35:43.236Z,13.38
2022-11-29T07:38:26.455Z,14.74
2022-11-29T07:41:13.052Z,16.65
2022-11-29T07:43:55.049Z,18.66
2022-11-29T07:46:23.596Z,20.39
2022-11-29T07:48:52.223Z,21.33
2022-11-29T07:51:20.514Z,21.67
2022-11-29T07:53:48.885Z,21.83
2022-11-29T07:56:17.066Z,22.18
2022-11-29T07:58:45.384Z,23.05
2022-11-29T08:01:13.661Z,24.26
2022-11-29T08:03:42.531Z,25.56
2022-11-29T08:06:10.701Z,26.65
2022-11-29T08:08:43.735Z,27.16
2022-11-29T08:11:13.194Z,27.22
2022-11-29T08:13:41.789Z,27.55
2022-11-29T08:16:16.623Z,28.33
2022-11-29T08:18:45.388Z,29.29
2022-11-29T08:21:13.584Z,30.26
2022-11-29T08:23:41.760Z,31.27
2022-11-29T08:26:10.451Z,32.29
2022-11-29T08:28:39.350Z,33.16
2022-11-29T08:31:10.435Z,33.94
2022-11-29T08:33:43.489Z,34.52
2022-11-29T08:36:15.674Z,35.06
2022-11-29T08:38:43.958Z,35.65
2022-11-29T08:41:14.771Z,36.26
2022-11-29T08:43:44.180Z,36.86
2022-11-29T08:46:17.971Z,37.42
2022-11-29T08:48:48.107Z,38.03
2022-11-29T08:51:16.182Z,38.52
2022-11-29T08:53:44.464Z,38.96
2022-11-29T08:59:05.589Z,39.72
2022-11-29T09:01:33.828Z,40.08
2022-11-29T09:04:02.161Z,40.41
2022-11-29T09:06:37.506Z,40.71
2022-11-29T09:09:06.489Z,41.03
2022-11-29T09:11:36.538Z,41.31
2022-11-29T09:14:07.650Z,41.56
2022-11-29T09:16:37.715Z,41.78
2022-11-29T09:19:06.675Z,41.90
2022-11-29T09:21:36.480Z,42.01
2022-11-29T09:24:06.093Z,42.11
2022-11-29T09:26:36.142Z,42.23
2022-11-29T09:29:06.850Z,42.29
2022-11-29T09:31:36.017Z,42.34
2022-11-29T09:34:04.433Z,42.29
2022-11-29T09:36:32.714Z,42.04
2022-11-29T09:39:02.429Z,41.57
2022-11-29T09:42:01.530Z,40.81
2022-11-29T09:44:38.695Z,39.70
2022-11-29T09:47:48.533Z,38.94
2022-11-29T09:50:23.660Z,38.55
2022-11-29T09:53:29.393Z,38.71
2022-11-29T09:56:19.941Z,39.11
2022-11-29T09:58:48.059Z,39.46
2022-11-29T10:01:27.583Z,39.60
2022-11-29T10:04:01.780Z,39.79
2022-11-29T10:06:36.881Z,40.17
2022-11-29T10:09:13.724Z,40.67
2022-11-29T10:12:03.197Z,41.05
2022-11-29T10:14:53.263Z,41.28
2022-11-29T10:17:32.190Z,41.40
2022-11-29T10:20:20.321Z,41.50
2022-11-29T10:22:59.761Z,41.54
2022-11-29T10:25:58.122Z,41.64
2022-11-29T10:28:32.217Z,42.03
2022-11-29T10:31:14.978Z,42.33
2022-11-29T10:33:44.456Z,42.53
2022-11-29T10:36:25.484Z,42.74
2022-11-29T10:38:59.944Z,42.78
2022-11-29T10:41:28.535Z,42.67
2022-11-29T10:43:58.682Z,42.37
2022-11-29T10:46:33.772Z,42.31
2022-11-29T10:49:10.592Z,42.19
2022-11-29T10:51:38.851Z,41.93
2022-11-29T10:54:39.718Z,41.74
2022-11-29T10:57:16.855Z,41.52
2022-11-29T11:00:03.766Z,41.30
2022-11-29T11:02:33.379Z,40.71
2022-11-29T11:05:01.859Z,40.07
2022-11-29T11:07:35.892Z,39.54
2022-11-29T11:10:18.175Z,39.39
2022-11-29T11:13:05.366Z,39.25
2022-11-29T11:15:33.696Z,39.23
2022-11-29T11:18:07.545Z,39.12
2022-11-29T11:20:41.806Z,38.75
2022-11-29T11:23:30.125Z,38.43
2022-11-29T11:26:04.430Z,38.32
2022-11-29T11:29:02.403Z,38.38
2022-11-29T11:31:36.515Z,38.63
2022-11-29T11:34:35.601Z,38.72
2022-11-29T11:37:16.261Z,38.89
2022-11-29T11:39:46.978Z,38.87
2022-11-29T11:42:38.569Z,38.79
2022-11-29T11:45:13.138Z,38.07
2022-11-29T11:47:48.889Z,36.86
2022-11-29T11:50:28.216Z,35.56
2022-11-29T11:52:59.074Z,34.49
2022-11-29T11:55:33.114Z,33.60
2022-11-29T11:58:13.280Z,32.78
2022-11-29T12:01:08.907Z,31.91
2022-11-29T12:03:48.531Z,30.96
2022-11-29T12:06:28.789Z,30.10
2022-11-29T12:09:09.070Z,29.31
2022-11-29T12:12:04.673Z,28.59
2022-11-29T12:14:45.286Z,27.95
2022-11-29T12:17:35.319Z,27.32
2022-11-29T12:20:12.467Z,26.88
2022-11-29T12:23:05.747Z,26.48
2022-11-29T12:25:46.166Z,26.12
2022-11-29T12:28:20.397Z,25.77
2022-11-29T12:30:55.381Z,25.56
2022-11-29T12:34:07.842Z,25.37
2022-11-29T12:36:44.823Z,25.10
2022-11-29T12:39:18.014Z,24.86
2022-11-29T12:42:04.445Z,24.73
2022-11-29T12:44:35.467Z,24.62
2022-11-29T12:47:35.039Z,24.48
2022-11-29T12:50:15.197Z,24.30
2022-11-29T12:53:14.385Z,24.25
2022-11-29T12:56:15.619Z,24.17
2022-11-29T12:59:11.840Z,24.18
2022-11-29T13:02:02.798Z,24.26
2022-11-29T13:04:33.899Z,24.35
2022-11-29T13:07:32.371Z,24.43
2022-11-29T13:10:25.592Z,24.50
2022-11-29T13:12:58.678Z,24.48
2022-11-29T13:15:59.666Z,24.42
2022-11-29T13:18:41.407Z,24.41
2022-11-29T13:21:24.211Z,24.47
2022-11-29T13:24:09.133Z,24.51
2022-11-29T13:26:40.512Z,24.38
2022-11-29T13:29:16.290Z,24.18
2022-11-29T13:31:46.951Z,24.00
2022-11-29T13:34:33.197Z,23.77
2022-11-29T13:37:26.151Z,23.43
2022-11-29T13:40:16.116Z,23.10
2022-11-29T13:42:57.292Z,22.92
2022-11-29T13:45:42.866Z,22.90
2022-11-29T13:48:29.466Z,22.94
2022-11-29T13:50:58.565Z,22.97
2022-11-29T13:53:48.546Z,22.98
2022-11-29T13:56:29.772Z,22.97
2022-11-29T13:58:58.816Z,22.95
2022-11-29T14:01:28.464Z,22.87
2022-11-29T14:04:05.314Z,22.84
2022-11-29T14:06:36.747Z,22.81
2022-11-29T14:09:20.917Z,22.81
2022-11-29T14:11:52.965Z,22.82
2022-11-29T14:14:42.021Z,22.80
2022-11-29T14:17:35.175Z,22.75
2022-11-29T14:20:23.201Z,22.79
2022-11-29T14:23:06.948Z,22.80
2022-11-29T14:25:52.709Z,22.73
2022-11-29T14:28:21.336Z,22.68
2022-11-29T14:30:54.287Z,22.62
2022-11-29T14:33:41.374Z,22.50
2022-11-29T14:36:15.610Z,22.43
2022-11-29T14:39:02.208Z,22.29
2022-11-29T14:41:49.315Z,22.11
2022-11-29T14:44:17.697Z,21.99
2022-11-29T14:46:48.108Z,21.89
2022-11-29T14:49:27.768Z,21.78
2022-11-29T14:52:09.992Z,21.69
2022-11-29T14:54:55.839Z,21.61
2022-11-29T14:57:53.804Z,21.53
2022-11-29T15:00:29.071Z,21.46
2022-11-29T15:03:19.196Z,21.38
2022-11-29T15:06:12.448Z,21.30
2022-11-29T15:08:49.565Z,21.24
2022-11-29T15:11:23.980Z,21.15
2022-11-29T15:14:02.694Z,21.05
2022-11-29T15:17:03.726Z,20.98
2022-11-29T15:20:07.459Z,20.90
2022-11-29T15:22:50.529Z,20.78
2022-11-29T15:25:30.347Z,20.65
2022-11-29T15:28:04.079Z,20.57
2022-11-29T15:30:32.564Z,20.51
2022-11-29T15:33:04.427Z,20.45
2022-11-29T15:35:35.264Z,20.38
2022-11-29T15:38:04.028Z,20.33
2022-11-29T15:40:32.341Z,20.31
2022-11-29T15:43:20.984Z,20.28
2022-11-29T15:45:54.327Z,20.22
2022-11-29T15:48:25.423Z,20.15
2022-11-29T15:50:56.670Z,20.04
2022-11-29T15:53:48.323Z,19.95
2022-11-29T15:56:22.911Z,19.87
2022-11-29T15:58:57.232Z,19.82
2022-11-29T16:01:25.574Z,19.80
2022-11-29T16:03:57.273Z,19.75
2022-11-29T16:06:40.823Z,19.69
2022-11-29T16:09:16.755Z,19.64
2022-11-29T16:11:48.001Z,19.58
2022-11-29T16:14:26.088Z,19.49
2022-11-29T16:16:57.976Z,19.39
2022-11-29T16:19:37.078Z,19.25
2022-11-29T16:22:21.953Z,19.14
2022-11-29T16:24:55.963Z,19.02
2022-11-29T16:27:24.656Z,18.86
2022-11-29T16:29:53.861Z,18.74
2022-11-29T16:32:32.886Z,18.62
2022-11-29T16:35:13.340Z,18.51
2022-11-29T16:37:44.745Z,18.39
2022-11-29T16:40:39.395Z,18.28
2022-11-29T16:43:20.905Z,18.18
2022-11-29T16:45:49.178Z,18.12
2022-11-29T16:48:23.763Z,18.07
2022-11-29T16:51:10.465Z,18.01
2022-11-29T16:53:43.556Z,17.92
2022-11-29T16:56:13.572Z,17.83
2022-11-29T16:59:24.893Z,17.75
2022-11-29T17:01:31.902Z,17.67
2022-11-29T17:04:00.684Z,17.62
2022-11-29T17:06:29.923Z,17.57
2022-11-29T17:08:59.585Z,17.53
2022-11-29T17:11:28.021Z,17.51
2022-11-29T17:13:56.409Z,17.48
2022-11-29T17:16:25.027Z,17.44
2022-11-29T17:18:53.168Z,17.40
2022-11-29T17:21:23.195Z,17.36
2022-11-29T17:23:52.903Z,17.33
2022-11-29T17:26:22.517Z,17.30
2022-11-29T17:28:52.739Z,17.26
2022-11-29T17:31:23.619Z,17.23
2022-11-29T17:33:52.091Z,17.21
2022-11-29T17:36:21.267Z,17.18
2022-11-29T17:38:49.546Z,17.16
2022-11-29T17:41:22.740Z,17.14
2022-11-29T17:43:52.336Z,17.12
2022-11-29T17:46:25.031Z,17.11
2022-11-29T17:48:53.926Z,17.08
2022-11-29T17:54:13.408Z,17.04
2022-11-29T17:56:41.695Z,17.02
2022-11-29T17:59:09.985Z,16.99
2022-11-29T18:01:38.288Z,16.97
2022-11-29T18:04:07.042Z,16.93
2022-11-29T18:06:40.142Z,16.90
2022-11-29T18:09:10.750Z,16.87
2022-11-29T18:11:47.377Z,16.85
2022-11-29T18:14:22.166Z,16.82
2022-11-29T18:16:51.318Z,16.79
2022-11-29T18:19:21.730Z,16.76
2022-11-29T18:21:50.703Z,16.72
2022-11-29T18:24:18.769Z,16.69
2022-11-29T18:26:47.153Z,16.65
2022-11-29T18:29:15.544Z,16.60
2022-11-29T18:31:45.762Z,16.57
2022-11-29T18:34:14.965Z,16.52
2022-11-29T18:36:48.372Z,16.46
2022-11-29T18:39:19.749Z,16.40
2022-11-29T18:41:49.949Z,16.35
2022-11-29T18:44:20.691Z,16.30
2022-11-29T18:46:49.192Z,16.25
2022-11-29T18:49:18.172Z,16.21
2022-11-29T18:51:47.129Z,16.17
2022-11-29T18:54:17.806Z,16.14
2022-11-29T18:56:46.379Z,16.10
2022-11-29T18:59:17.833Z,16.06
2022-11-29T19:01:48.225Z,16.03
2022-11-29T19:04:19.516Z,15.98
2022-11-29T19:06:47.859Z,15.95
2022-11-29T19:09:19.481Z,15.91
2022-11-29T19:11:47.834Z,15.89
2022-11-29T19:14:15.907Z,15.86
2022-11-29T19:16:46.195Z,15.82
2022-11-29T19:19:14.412Z,15.78
2022-11-29T19:21:42.592Z,15.74
2022-11-29T19:24:15.956Z,15.69
2022-11-29T19:26:46.839Z,15.65
2022-11-29T19:29:16.340Z,15.63
2022-11-29T19:31:44.621Z,15.61
2022-11-29T19:34:12.789Z,15.60
2022-11-29T19:36:42.096Z,15.58
2022-11-29T19:39:10.681Z,15.55
2022-11-29T19:41:39.387Z,15.50
2022-11-29T19:44:09.112Z,15.45
2022-11-29T19:46:40.701Z,15.42
2022-11-29T19:49:09.776Z,15.41
2022-11-29T19:51:38.430Z,15.40
2022-11-29T19:54:08.742Z,15.38
2022-11-29T19:56:37.841Z,15.36
2022-11-29T19:59:07.194Z,15.32
2022-11-29T20:01:40.657Z,15.25
2022-11-29T20:04:12.008Z,15.19
2022-11-29T20:06:40.807Z,15.13
2022-11-29T20:09:09.696Z,15.11
2022-11-29T20:11:37.886Z,15.10
2022-11-29T20:14:07.590Z,15.10
2022-11-29T20:16:36.870Z,15.09
2022-11-29T20:19:10.528Z,15.07
2022-11-29T20:21:42.764Z,15.04
2022-11-29T20:24:12.137Z,15.01
2022-11-29T20:26:42.593Z,14.99
2022-11-29T20:29:12.264Z,14.98
2022-11-29T20:31:47.773Z,14.96
2022-11-29T20:34:19.424Z,14.95
2022-11-29T20:37:12.052Z,14.95
2022-11-29T20:39:53.687Z,14.92
2022-11-29T20:42:33.992Z,14.90
2022-11-29T20:45:05.891Z,14.87
2022-11-29T20:47:55.054Z,14.86
2022-11-29T20:50:28.526Z,14.83
2022-11-29T20:53:20.228Z,14.78
2022-11-29T20:55:49.739Z,14.73
2022-11-29T20:58:17.915Z,14.69
2022-11-29T21:00:46.809Z,14.65
2022-11-29T21:03:16.462Z,14.64
2022-11-29T21:05:44.657Z,14.63
2022-11-29T21:08:13.978Z,14.61
2022-11-29T21:10:42.488Z,14.59
2022-11-29T21:13:12.814Z,14.56
2022-11-29T21:15:41.816Z,14.55
2022-11-29T21:18:30.178Z,14.54
2022-11-29T21:21:13.474Z,14.53
2022-11-29T21:23:52.301Z,14.52
2022-11-29T21:26:30.168Z,14.50
2022-11-29T21:29:04.845Z,14.48
2022-11-29T21:31:33.356Z,14.45
2022-11-29T21:34:02.304Z,14.46
2022-11-29T21:36:30.489Z,14.45
2022-11-29T21:39:03.633Z,14.43
2022-11-29T21:41:34.027Z,14.43
2022-11-29T21:44:07.215Z,14.41
2022-11-29T21:46:36.820Z,14.40
2022-11-29T21:49:05.292Z,14.39
2022-11-29T21:51:33.468Z,14.40
2022-11-29T21:54:02.269Z,14.40
2022-11-29T21:56:30.440Z,14.41
2022-11-29T21:58:58.618Z,14.40
2022-11-29T22:01:27.564Z,14.40
2022-11-29T22:03:55.996Z,14.41
2022-11-29T22:06:24.295Z,14.43
2022-11-29T22:08:53.075Z,14.43
2022-11-29T22:11:23.512Z,14.42
2022-11-29T22:13:53.625Z,14.40
2022-11-29T22:16:21.592Z,14.36
2022-11-29T22:18:50.704Z,14.33
2022-11-29T22:21:19.283Z,14.31
2022-11-29T22:23:47.468Z,14.30
2022-11-29T22:26:15.641Z,14.27
2022-11-29T22:28:43.818Z,14.24
2022-11-29T22:31:12.893Z,14.21
2022-11-29T22:33:40.995Z,14.20
2022-11-29T22:36:12.525Z,14.21
2022-11-29T22:38:40.625Z,14.22
2022-11-29T22:41:11.484Z,14.23
2022-11-29T22:43:41.092Z,14.25
2022-11-29T22:46:12.026Z,14.26
2022-11-29T22:48:41.953Z,14.26
2022-11-29T22:51:15.965Z,14.25
2022-11-29T22:53:52.214Z,14.25
2022-11-29T22:56:21.203Z,14.26
2022-11-29T22:58:49.899Z,14.29
2022-11-29T23:01:24.158Z,14.30
2022-11-29T23:03:54.907Z,14.32
2022-11-29T23:06:22.924Z,14.33
2022-11-29T23:08:53.457Z,14.35
2022-11-29T23:11:27.787Z,14.36
2022-11-29T23:13:56.639Z,14.37
2022-11-29T23:16:27.825Z,14.37
2022-11-29T23:18:58.663Z,14.36
2022-11-29T23:21:32.678Z,14.36
2022-11-29T23:24:01.570Z,14.35
2022-11-29T23:26:48.262Z,14.31
2022-11-29T23:29:18.982Z,14.28
2022-11-29T23:31:47.776Z,14.25
2022-11-29T23:34:16.377Z,14.23
2022-11-29T23:36:49.642Z,14.21
2022-11-29T23:39:21.232Z,14.19
2022-11-29T23:41:49.412Z,14.17
2022-11-29T23:44:17.583Z,14.15
2022-11-29T23:46:45.681Z,14.14
2022-11-29T23:49:14.248Z,14.11
2022-11-29T23:51:42.427Z,14.10
2022-11-29T23:54:10.604Z,14.09
2022-11-29T23:56:39.193Z,14.08
2022-11-29T23:59:07.780Z,14.07
